Rocky Face, Georgia
Current Conditions -  °F | °C
As of 4:35 PM on Friday 24 Oct 2014 (Local Time) from KDNN Reporting Station
Clear Clear  
Wind Chill: 20°   Ceiling: Unl
Heat Index: 20°   Visibility: 10mi
Dew Point:   Wind: 9mph
Humidity: 43%   Direction: 340°NNW
Pressure: 30.03"   Gusts: NA
Location:  34.8°N, 85.03°W
Report Text: KDNN 242035Z AUTO 34008KT 10SM CLR 20/07 A3003 RMK AO2
Loading
Personal Weather Stations






























Interactive Weather Map
Tropical Storm Tracking
New forecast layout! Learn more

10-Day Weather Forecast

Advertisements
Track Severe Weather on mobile